Overview Statistics Trail Chart Weather Telemetry Raw packets
 

This is the latest recevied weather packets stored in our database for station/object G4KVI. If no packets are shown the sender has not sent any weather packets the latest 10 day(s).

<< 45 46 47 48 49 50 51 >>
Time Temp. Humidity Pressure Rain* Wind** Luminosity Snow
1788288303 17.22° C 67% 1022.4 hPa 0 mm - 4 W/m² -
1788288003 17.78° C 66% 1022.3 hPa 0 mm - 5 W/m² -
1788287703 17.78° C 65% 1022.3 hPa 0 mm - 7 W/m² -
1788287403 17.78° C 65% 1022.4 hPa 0 mm - 9 W/m² -
1788287103 17.78° C 66% 1022.3 hPa 0 mm - 11 W/m² -
1788286803 17.78° C 65% 1022 hPa 0 mm - 12 W/m² -
1788286503 17.78° C 65% 1022.2 hPa 0 mm - 12 W/m² -
1788286203 18.33° C 66% 1022.3 hPa 0 mm - 15 W/m² -
1788285903 18.33° C 66% 1022.3 hPa 0 mm - 13 W/m² -
1788285605 18.33° C 67% 1022.3 hPa 0 mm - 15 W/m² -
1788285303 18.33° C 66% 1022.5 hPa 0 mm - 22 W/m² -
1788285003 18.33° C 66% 1022.5 hPa 0 mm - 31 W/m² -
1788284703 18.33° C 66% 1022.5 hPa 0 mm - 41 W/m² -
1788284403 18.33° C 65% 1022.3 hPa 0 mm - 53 W/m² -
1788284103 18.89° C 65% 1022.2 hPa 0 mm - 68 W/m² -
1788283803 18.89° C 65% 1022.7 hPa 0 mm - 69 W/m² -
1788283503 18.89° C 64% 1022.6 hPa 0 mm - 59 W/m² -
1788283203 18.89° C 64% 1022.3 hPa 0 mm - 70 W/m² -
1788282903 18.89° C 63% 1022 hPa 0 mm - 78 W/m² -
1788282603 18.89° C 63% 1022.4 hPa 0 mm - 84 W/m² -
1788282303 18.89° C 62% 1022.2 hPa 0 mm - 109 W/m² -
1788282003 19.44° C 62% 1022.1 hPa 0 mm - 110 W/m² -
1788281721 19.44° C 61% 1022.3 hPa 0 mm - 133 W/m² -
1788281403 20° C 60% 1022.2 hPa 0 mm - 135 W/m² -
1788281103 19.44° C 61% 1022.4 hPa 0 mm - 249 W/m² -

* Rain latest hour (hover to see other rain measurements)
** Current wind speed in m/s (hover to see current wind gust speed)